createdAt,value
2018-04-14T00:24:50.007Z,2.13
2018-04-14T00:41:39.626Z,1.80
2018-04-14T00:58:53.294Z,1.93
2018-04-14T01:04:10.732Z,1.87
2018-04-14T01:07:02.249Z,2.10
2018-04-14T01:18:29.316Z,1.70
2018-04-14T01:21:24.031Z,2.00
2018-04-14T01:32:30.836Z,2.10
2018-04-14T01:46:54.006Z,2.17
2018-04-14T01:49:40.167Z,1.70
2018-04-14T02:00:49.529Z,2.17
2018-04-14T02:03:38.790Z,2.03
2018-04-14T02:22:04.604Z,2.17
2018-04-14T02:24:49.047Z,2.10
2018-04-14T02:39:54.298Z,2.37
2018-04-14T02:42:24.315Z,2.00
2018-04-14T02:47:35.924Z,2.00
2018-04-14T02:52:44.867Z,2.20
2018-04-14T02:55:15.908Z,2.10
2018-04-14T02:58:50.192Z,2.10
2018-04-14T03:16:56.667Z,1.80
2018-04-14T03:19:26.641Z,2.10
2018-04-14T03:21:55.427Z,1.83
2018-04-14T03:24:24.271Z,2.10
2018-04-14T03:27:14.992Z,1.97
2018-04-14T03:29:43.275Z,2.00
2018-04-14T03:32:11.220Z,2.20
2018-04-14T03:34:51.474Z,2.10
2018-04-14T03:56:09.719Z,2.20
2018-04-14T03:58:39.025Z,1.90
2018-04-14T04:01:22.961Z,2.10
2018-04-14T04:04:02.806Z,2.07
2018-04-14T04:06:34.976Z,2.23
2018-04-14T04:09:03.052Z,2.17
2018-04-14T04:11:30.922Z,2.00
2018-04-14T04:13:59.510Z,2.53
2018-04-14T04:16:29.173Z,2.00
2018-04-14T04:52:53.021Z,2.60
2018-04-14T04:55:37.062Z,2.37
2018-04-14T04:58:05.033Z,1.87
2018-04-14T05:00:32.749Z,2.20
2018-04-14T05:03:11.625Z,2.37
2018-04-14T05:11:20.879Z,2.10
2018-04-14T05:13:49.620Z,1.97
2018-04-14T05:21:59.336Z,2.27
2018-04-14T05:24:52.385Z,2.03
2018-04-14T05:27:27.417Z,2.67
2018-04-14T05:29:57.130Z,2.30
2018-04-14T05:32:28.687Z,2.00
2018-04-14T05:40:37.737Z,2.30
2018-04-14T05:43:05.711Z,2.23
2018-04-14T06:25:15.428Z,2.43
2018-04-14T07:04:04.397Z,2.37
2018-04-14T07:09:22.462Z,3.00
2018-04-14T07:11:50.759Z,2.50
2018-04-14T07:14:18.161Z,2.90
2018-04-14T07:16:45.546Z,2.40
2018-04-14T07:19:12.975Z,2.70
2018-04-14T07:21:40.358Z,2.80
2018-04-14T07:24:07.742Z,3.17
2018-04-14T07:26:35.202Z,2.70
2018-04-14T07:29:03.833Z,2.93
2018-04-14T07:31:31.215Z,2.30
2018-04-14T07:33:58.713Z,3.00
2018-04-14T07:36:26.106Z,2.90
2018-04-14T07:38:53.514Z,3.00
2018-04-14T07:41:20.931Z,3.03
2018-04-14T07:43:48.307Z,3.73
2018-04-14T07:46:15.691Z,3.30
2018-04-14T07:48:43.118Z,3.23
2018-04-14T07:51:10.506Z,3.50
2018-04-14T07:53:37.901Z,3.23
2018-04-14T07:56:05.335Z,3.20
2018-04-14T07:58:32.809Z,4.13
2018-04-14T08:01:00.208Z,3.40
2018-04-14T08:03:27.622Z,3.90
2018-04-14T08:05:55.114Z,3.23
2018-04-14T08:08:22.510Z,3.90
2018-04-14T08:10:49.897Z,4.00
2018-04-14T08:13:17.319Z,3.60
2018-04-14T08:15:44.706Z,4.07
2018-04-14T08:18:12.131Z,3.83
2018-04-14T08:20:39.558Z,4.90
2018-04-14T08:23:07.240Z,4.50
2018-04-14T08:25:35.418Z,4.20
2018-04-14T08:28:03.293Z,4.23
2018-04-14T08:30:31.172Z,4.83
2018-04-14T08:32:58.728Z,4.77
2018-04-14T08:35:26.114Z,4.60
2018-04-14T08:37:53.677Z,4.83
2018-04-14T08:40:21.521Z,4.60
2018-04-14T08:42:50.163Z,4.60
2018-04-14T08:45:17.685Z,3.90
2018-04-14T08:47:45.121Z,4.17
2018-04-14T08:50:12.513Z,4.37
2018-04-14T08:52:40.029Z,4.87
2018-04-14T08:55:07.454Z,4.50
2018-04-14T08:57:35.906Z,4.00
2018-04-14T09:00:03.676Z,4.53
2018-04-14T09:02:36.155Z,4.70
2018-04-14T09:05:04.984Z,4.83
2018-04-14T09:10:40.804Z,5.53
2018-04-14T09:13:19.682Z,5.53
2018-04-14T09:24:33.488Z,5.87
2018-04-14T09:29:50.928Z,4.73
2018-04-14T09:35:38.045Z,5.90
2018-04-14T10:05:13.534Z,5.57
2018-04-14T10:19:11.739Z,7.40
2018-04-14T10:21:43.788Z,6.20
2018-04-14T10:30:08.747Z,5.90
2018-04-14T10:35:30.864Z,6.73
2018-04-14T10:38:00.208Z,6.20
2018-04-14T10:40:28.306Z,6.67
2018-04-14T10:42:56.681Z,6.30
2018-04-14T10:48:33.032Z,5.87
2018-04-14T10:51:17.958Z,6.20
2018-04-14T10:59:52.504Z,5.47
2018-04-14T11:19:31.880Z,6.77
2018-04-14T11:25:01.463Z,7.37
2018-04-14T11:31:07.240Z,7.00
2018-04-14T11:33:35.873Z,7.60
2018-04-14T11:36:03.698Z,6.50
2018-04-14T11:38:31.390Z,6.40
2018-04-14T11:40:59.613Z,7.00
2018-04-14T11:46:02.645Z,6.80
2018-04-14T11:48:31.607Z,6.53
2018-04-14T11:51:00.892Z,6.63
2018-04-14T11:53:28.726Z,6.60
2018-04-14T11:58:46.130Z,6.57
2018-04-14T12:01:15.356Z,6.40
2018-04-14T12:06:40.684Z,6.03
2018-04-14T12:09:15.678Z,6.23
2018-04-14T12:11:43.424Z,5.93
2018-04-14T12:14:11.396Z,5.60
2018-04-14T12:16:42.097Z,5.80
2018-04-14T12:19:09.970Z,6.27
2018-04-14T12:21:39.989Z,5.63
2018-04-14T12:24:09.177Z,5.30
2018-04-14T12:26:36.945Z,5.37
2018-04-14T12:29:05.111Z,5.27
2018-04-14T12:34:24.278Z,5.60
2018-04-14T12:36:59.656Z,4.90
2018-04-14T12:39:27.737Z,5.20
2018-04-14T12:41:58.120Z,5.37
2018-04-14T12:44:26.033Z,5.47
2018-04-14T12:47:10.901Z,5.27
2018-04-14T12:56:51.493Z,5.43
2018-04-14T12:59:19.392Z,4.90
2018-04-14T13:01:54.139Z,5.20
2018-04-14T13:04:30.019Z,5.10
2018-04-14T13:07:06.222Z,5.00
2018-04-14T13:09:34.066Z,6.43
2018-04-14T13:12:21.643Z,5.23
2018-04-14T13:14:50.645Z,5.43
2018-04-14T13:22:55.201Z,5.40
2018-04-14T13:25:26.125Z,5.93
2018-04-14T13:28:00.936Z,6.10
2018-04-14T13:30:30.884Z,5.23
2018-04-14T13:33:14.717Z,5.73
2018-04-14T13:35:46.056Z,6.00
2018-04-14T13:41:00.563Z,6.20
2018-04-14T13:43:37.473Z,7.00
2018-04-14T13:46:05.899Z,6.93
2018-04-14T13:51:24.974Z,7.07
2018-04-14T13:53:58.130Z,8.87
2018-04-14T13:56:26.709Z,8.03
2018-04-14T14:01:50.018Z,8.13
2018-04-14T14:04:28.333Z,7.60
2018-04-14T14:15:35.124Z,8.17
2018-04-14T14:21:08.915Z,8.10
2018-04-14T14:23:46.887Z,7.93
2018-04-14T14:32:34.891Z,6.97
2018-04-14T15:27:01.985Z,6.30
2018-04-14T15:29:40.603Z,6.23
2018-04-14T15:32:08.473Z,6.77
2018-04-14T15:34:36.796Z,6.23
2018-04-14T15:41:35.133Z,6.17
2018-04-14T15:44:03.371Z,5.83
2018-04-14T15:46:33.612Z,5.77
2018-04-14T15:49:01.747Z,5.57
2018-04-14T15:51:29.528Z,6.27
2018-04-14T15:54:05.499Z,6.87
2018-04-14T15:56:33.272Z,6.07
2018-04-14T15:59:02.883Z,6.60
2018-04-14T16:01:35.491Z,6.50
2018-04-14T16:04:09.658Z,6.70
2018-04-14T16:24:14.555Z,6.67
2018-04-14T16:26:45.634Z,6.10
2018-04-14T16:29:18.583Z,6.90
2018-04-14T16:34:45.741Z,6.30
2018-04-14T16:37:15.156Z,6.57
2018-04-14T16:39:43.948Z,6.40
2018-04-14T16:42:12.941Z,6.40
2018-04-14T16:44:42.346Z,6.40
2018-04-14T16:47:14.515Z,6.50
2018-04-14T16:49:58.309Z,6.20
2018-04-14T16:52:26.325Z,5.77
2018-04-14T16:57:35.067Z,6.57
2018-04-14T17:00:05.802Z,6.47
2018-04-14T17:02:37.136Z,6.00
2018-04-14T17:05:09.286Z,6.70
2018-04-14T17:07:39.039Z,6.17
2018-04-14T17:10:17.832Z,6.67
2018-04-14T17:12:45.945Z,7.03
2018-04-14T17:15:20.154Z,6.20
2018-04-14T17:37:31.311Z,6.80
2018-04-14T17:39:59.590Z,6.80
2018-04-14T17:45:26.544Z,7.10
2018-04-14T17:48:11.815Z,7.30
2018-04-14T17:50:41.310Z,6.63
2018-04-14T17:53:09.707Z,7.00
2018-04-14T17:55:38.078Z,6.83
2018-04-14T17:58:05.757Z,8.43
2018-04-14T18:00:33.726Z,8.03
2018-04-14T18:06:02.834Z,7.00
2018-04-14T18:08:31.005Z,11.80
2018-04-14T18:10:58.979Z,7.77
2018-04-14T18:13:27.475Z,7.40
2018-04-14T18:15:55.395Z,8.17
2018-04-14T18:21:08.588Z,8.00
2018-04-14T18:23:36.333Z,7.90
2018-04-14T18:26:04.528Z,7.70
2018-04-14T18:28:42.637Z,7.80
2018-04-14T18:31:10.577Z,11.00
2018-04-14T18:33:40.528Z,9.83
2018-04-14T18:36:08.596Z,8.60
2018-04-14T18:38:36.577Z,7.90
2018-04-14T18:41:04.375Z,8.07
2018-04-14T18:43:32.143Z,8.10
2018-04-14T18:46:00.497Z,8.33
2018-04-14T18:48:28.431Z,9.00
2018-04-14T18:50:56.781Z,9.03
2018-04-14T18:53:25.596Z,7.73
2018-04-14T18:55:53.722Z,8.17
2018-04-14T19:07:09.667Z,8.63
2018-04-14T19:09:37.822Z,8.13
2018-04-14T19:12:05.688Z,8.10
2018-04-14T19:14:34.711Z,7.57
2018-04-14T19:17:04.020Z,8.07
2018-04-14T19:19:38.613Z,8.37
2018-04-14T19:22:21.424Z,9.50
2018-04-14T19:24:49.766Z,8.00
2018-04-14T19:27:24.832Z,8.07
2018-04-14T19:30:09.124Z,8.37
2018-04-14T19:32:36.913Z,7.80
2018-04-14T19:35:04.565Z,8.20
2018-04-14T19:37:33.298Z,8.17
2018-04-14T19:40:00.987Z,7.93
2018-04-14T19:42:28.655Z,7.87
2018-04-14T19:44:56.296Z,8.17
2018-04-14T19:47:26.922Z,7.53
2018-04-14T19:50:02.785Z,7.37
2018-04-14T19:52:35.490Z,7.03
2018-04-14T19:55:04.179Z,7.60
2018-04-14T19:57:33.386Z,6.90
2018-04-14T20:00:01.085Z,7.73
2018-04-14T20:02:28.965Z,7.93
2018-04-14T20:04:57.572Z,7.43
2018-04-14T20:07:27.119Z,7.30
2018-04-14T20:09:54.888Z,8.07
2018-04-14T20:15:12.838Z,7.87
2018-04-14T20:17:41.119Z,7.47
2018-04-14T20:20:09.297Z,7.82
2018-04-14T20:22:37.391Z,8.60
2018-04-14T20:25:05.230Z,8.20
2018-04-14T20:27:33.969Z,9.47
2018-04-14T20:30:18.118Z,9.30
2018-04-14T20:32:46.260Z,8.60
2018-04-14T20:35:14.335Z,8.73
2018-04-14T20:37:47.839Z,8.70
2018-04-14T20:40:15.808Z,9.40
2018-04-14T20:42:50.535Z,9.60
2018-04-14T20:45:18.383Z,9.87
2018-04-14T20:47:46.076Z,9.87
2018-04-14T20:50:19.780Z,9.30
2018-04-14T20:52:48.090Z,9.50
2018-04-14T20:55:16.546Z,9.43
2018-04-14T20:57:45.030Z,10.03
2018-04-14T21:00:14.480Z,9.83
2018-04-14T21:02:45.368Z,10.13
2018-04-14T21:05:13.485Z,12.70
2018-04-14T21:07:41.336Z,9.33
2018-04-14T21:10:11.042Z,10.50
2018-04-14T21:15:32.471Z,8.80
2018-04-14T21:18:19.067Z,9.47
2018-04-14T21:20:46.837Z,9.33
2018-04-14T21:23:18.597Z,8.90
2018-04-14T21:25:48.844Z,8.17
2018-04-14T21:31:49.346Z,8.23
2018-04-14T21:37:11.796Z,7.97
